createdAt,value
2023-12-18T00:00:57.668Z,4.90
2023-12-18T00:01:57.400Z,4.92
2023-12-18T00:02:57.370Z,4.93
2023-12-18T00:03:57.399Z,4.94
2023-12-18T00:04:57.358Z,5.05
2023-12-18T00:05:57.258Z,5.11
2023-12-18T00:06:57.287Z,5.00
2023-12-18T00:07:57.187Z,5.11
2023-12-18T00:08:57.130Z,5.05
2023-12-18T00:09:57.174Z,4.93
2023-12-18T00:10:57.111Z,4.93
2023-12-18T00:11:57.025Z,4.92
2023-12-18T00:12:57.048Z,4.92
2023-12-18T00:13:56.965Z,4.94
2023-12-18T00:14:56.912Z,4.94
2023-12-18T00:15:56.888Z,4.99
2023-12-18T00:16:56.850Z,4.94
2023-12-18T00:17:56.894Z,4.93
2023-12-18T00:18:56.977Z,4.86
2023-12-18T00:19:56.751Z,4.94
2023-12-18T00:20:56.693Z,4.92
2023-12-18T00:21:56.689Z,4.80
2023-12-18T00:22:56.628Z,4.84
2023-12-18T00:23:56.594Z,4.84
2023-12-18T00:24:56.634Z,4.73
2023-12-18T00:25:56.536Z,4.90
2023-12-18T00:26:56.472Z,4.90
2023-12-18T00:27:56.565Z,4.89
2023-12-18T00:28:56.436Z,4.87
2023-12-18T00:29:56.379Z,4.86
2023-12-18T00:30:56.457Z,4.90
2023-12-18T00:31:56.294Z,4.77
2023-12-18T00:32:56.365Z,4.80
2023-12-18T00:33:56.375Z,4.73
2023-12-18T00:34:56.257Z,4.86
2023-12-18T00:35:56.194Z,4.89
2023-12-18T00:36:56.106Z,4.86
2023-12-18T00:37:56.080Z,4.90
2023-12-18T00:38:56.022Z,4.94
2023-12-18T00:39:55.977Z,4.96
2023-12-18T00:40:55.965Z,4.89
2023-12-18T00:41:56.003Z,4.96
2023-12-18T00:42:55.878Z,5.04
2023-12-18T00:43:55.832Z,4.97
2023-12-18T00:44:55.805Z,5.04
2023-12-18T00:45:55.792Z,4.94
2023-12-18T00:46:55.780Z,4.90
2023-12-18T00:47:55.885Z,4.93
2023-12-18T00:48:55.824Z,4.96
2023-12-18T00:49:55.744Z,5.00
2023-12-18T00:50:55.604Z,4.97
2023-12-18T00:51:55.573Z,5.02
2023-12-18T00:52:55.578Z,4.97
2023-12-18T00:53:55.458Z,4.96
2023-12-18T00:54:55.454Z,4.96
2023-12-18T00:55:55.468Z,4.94
2023-12-18T00:56:55.368Z,4.90
2023-12-18T00:57:55.360Z,4.92
2023-12-18T00:58:55.359Z,5.00
2023-12-18T00:59:55.280Z,4.93
2023-12-18T01:00:55.422Z,4.84
2023-12-18T01:01:55.194Z,4.75
2023-12-18T01:02:55.181Z,4.77
2023-12-18T01:03:55.180Z,4.71
2023-12-18T01:04:55.175Z,4.77
2023-12-18T01:05:55.016Z,4.71
2023-12-18T01:06:54.993Z,4.73
2023-12-18T01:07:54.956Z,4.70
2023-12-18T01:08:54.916Z,4.63
2023-12-18T01:09:54.880Z,4.59
2023-12-18T01:10:54.920Z,4.66
2023-12-18T01:11:54.827Z,4.62
2023-12-18T01:12:54.769Z,4.50
2023-12-18T01:13:54.732Z,4.42
2023-12-18T01:14:54.704Z,4.53
2023-12-18T01:15:54.700Z,4.50
2023-12-18T01:16:54.732Z,4.50
2023-12-18T01:17:54.643Z,4.38
2023-12-18T01:18:54.725Z,4.44
2023-12-18T01:19:54.580Z,4.42
2023-12-18T01:20:54.486Z,4.45
2023-12-18T01:21:54.428Z,4.53
2023-12-18T01:23:02.111Z,4.52
2023-12-18T01:23:54.399Z,4.42
2023-12-18T01:24:54.337Z,4.49
2023-12-18T01:25:54.295Z,4.53
2023-12-18T01:26:54.247Z,4.44
2023-12-18T01:27:54.279Z,4.44
2023-12-18T01:28:54.268Z,4.41
2023-12-18T01:29:54.166Z,4.44
2023-12-18T01:30:54.203Z,4.38
2023-12-18T01:31:54.062Z,4.22
2023-12-18T01:32:54.197Z,4.34
2023-12-18T01:33:54.116Z,4.19
2023-12-18T01:34:54.019Z,4.16
2023-12-18T01:35:53.958Z,4.16
2023-12-18T01:36:53.879Z,4.16
2023-12-18T01:37:53.839Z,4.20
2023-12-18T01:38:53.824Z,4.08
2023-12-18T01:39:53.768Z,4.02
2023-12-18T01:40:53.793Z,3.96
2023-12-18T01:41:53.761Z,3.94
2023-12-18T01:42:53.673Z,3.94
2023-12-18T01:43:53.626Z,3.91
2023-12-18T01:44:53.613Z,3.88
2023-12-18T01:45:53.559Z,3.94
2023-12-18T01:46:53.614Z,3.96
2023-12-18T01:47:53.544Z,3.92
2023-12-18T01:48:53.596Z,4.05
2023-12-18T01:49:53.418Z,3.96
2023-12-18T01:50:53.366Z,3.99
2023-12-18T01:51:53.324Z,3.95
2023-12-18T01:52:53.345Z,3.91
2023-12-18T01:53:53.252Z,3.94
2023-12-18T01:54:53.215Z,3.96
2023-12-18T01:55:53.243Z,3.91
2023-12-18T01:56:53.154Z,3.94
2023-12-18T01:57:53.185Z,3.92
2023-12-18T01:58:53.132Z,3.88
2023-12-18T01:59:53.039Z,3.87
2023-12-18T02:00:53.130Z,3.94
2023-12-18T02:01:52.951Z,3.95
2023-12-18T02:02:52.936Z,3.96
2023-12-18T02:03:52.942Z,3.95
2023-12-18T02:04:52.984Z,3.96
2023-12-18T02:05:52.840Z,3.91
2023-12-18T02:06:52.785Z,3.92
2023-12-18T02:07:52.724Z,3.91
2023-12-18T02:08:52.690Z,3.88
2023-12-18T02:09:52.660Z,3.98
2023-12-18T02:10:52.669Z,3.92
2023-12-18T02:11:52.595Z,3.88
2023-12-18T02:12:52.538Z,4.01
2023-12-18T02:13:52.494Z,3.94
2023-12-18T02:14:52.489Z,4.10
2023-12-18T02:15:52.489Z,4.05
2023-12-18T02:16:52.406Z,4.14
2023-12-18T02:17:52.408Z,4.08
2023-12-18T02:18:52.487Z,4.19
2023-12-18T02:19:52.360Z,4.16
2023-12-18T02:20:52.325Z,4.26
2023-12-18T02:21:52.197Z,4.26
2023-12-18T02:22:52.171Z,4.26
2023-12-18T02:23:52.335Z,4.34
2023-12-18T02:24:52.098Z,4.19
2023-12-18T02:25:52.050Z,4.30
2023-12-18T02:26:52.112Z,4.30
2023-12-18T02:27:52.053Z,4.22
2023-12-18T02:28:51.992Z,4.28
2023-12-18T02:29:51.936Z,4.37
2023-12-18T02:30:52.040Z,4.44
2023-12-18T02:31:51.888Z,4.49
2023-12-18T02:32:51.971Z,4.58
2023-12-18T02:33:52.141Z,4.60
2023-12-18T02:34:51.816Z,4.60
2023-12-18T02:35:51.723Z,4.70
2023-12-18T02:36:51.664Z,4.78
2023-12-18T02:37:51.627Z,4.80
2023-12-18T02:38:51.693Z,4.77
2023-12-18T02:39:51.546Z,4.89
2023-12-18T02:40:51.519Z,4.94
2023-12-18T02:41:51.519Z,4.96
2023-12-18T02:42:51.473Z,4.99
2023-12-18T02:43:51.390Z,5.02
2023-12-18T02:44:51.430Z,5.15
2023-12-18T02:45:51.348Z,5.18
2023-12-18T02:46:51.297Z,5.28
2023-12-18T02:47:51.270Z,5.25
2023-12-18T02:48:51.292Z,5.36
2023-12-18T02:49:51.230Z,5.33
2023-12-18T02:50:51.204Z,5.44
2023-12-18T02:51:51.141Z,5.48
2023-12-18T02:52:51.071Z,5.54
2023-12-18T02:53:51.032Z,5.64
2023-12-18T02:54:50.994Z,5.65
2023-12-18T02:55:50.970Z,5.65
2023-12-18T02:56:50.986Z,5.73
2023-12-18T02:57:50.894Z,5.73
2023-12-18T02:58:50.859Z,5.80
2023-12-18T02:59:50.837Z,5.76
2023-12-18T03:00:50.890Z,5.89
2023-12-18T03:01:50.752Z,5.93
2023-12-18T03:02:50.822Z,6.04
2023-12-18T03:03:50.763Z,6.07
2023-12-18T03:04:50.653Z,6.11
2023-12-18T03:05:50.590Z,6.09
2023-12-18T03:06:50.568Z,6.22
2023-12-18T03:07:50.521Z,6.19
2023-12-18T03:08:50.575Z,6.28
2023-12-18T03:09:50.488Z,6.22
2023-12-18T03:10:50.436Z,6.28
2023-12-18T03:11:50.378Z,6.39
2023-12-18T03:12:50.342Z,6.46
2023-12-18T03:13:50.299Z,6.44
2023-12-18T03:14:50.340Z,6.57
2023-12-18T03:15:50.283Z,6.66
2023-12-18T03:16:50.221Z,6.67
2023-12-18T03:17:50.280Z,6.59
2023-12-18T03:18:50.201Z,6.69
2023-12-18T03:19:50.157Z,6.78
2023-12-18T03:20:50.130Z,6.87
2023-12-18T03:21:50.085Z,7.05
2023-12-18T03:22:49.981Z,7.14
2023-12-18T03:23:49.952Z,7.29
2023-12-18T03:24:50.000Z,7.40
2023-12-18T03:25:49.948Z,7.43
2023-12-18T03:26:49.858Z,7.45
2023-12-18T03:27:49.955Z,7.57
2023-12-18T03:28:49.807Z,7.60
2023-12-18T03:29:49.731Z,7.70
2023-12-18T03:30:49.785Z,7.72
2023-12-18T03:31:49.714Z,7.76
2023-12-18T03:32:49.671Z,7.76
2023-12-18T03:33:49.669Z,7.73
2023-12-18T03:34:49.599Z,7.93
2023-12-18T03:35:49.525Z,7.98
2023-12-18T03:36:49.508Z,8.01
2023-12-18T03:37:49.527Z,8.00
2023-12-18T03:38:49.422Z,7.97
2023-12-18T03:39:49.456Z,8.03
2023-12-18T03:40:49.358Z,8.08
2023-12-18T03:41:49.329Z,8.08
2023-12-18T03:42:49.413Z,8.13
2023-12-18T03:43:49.342Z,8.12
2023-12-18T03:44:49.199Z,8.09
2023-12-18T03:45:49.229Z,8.10
2023-12-18T03:46:49.123Z,8.09
2023-12-18T03:47:49.199Z,8.12
2023-12-18T03:48:49.188Z,8.10
2023-12-18T03:49:49.138Z,8.09
2023-12-18T03:50:48.983Z,8.19
2023-12-18T03:51:49.007Z,8.18
2023-12-18T03:52:48.924Z,8.19
2023-12-18T03:53:48.949Z,8.20
2023-12-18T03:54:48.928Z,8.10
2023-12-18T03:55:48.885Z,8.12
2023-12-18T03:56:48.779Z,8.19
2023-12-18T03:57:48.894Z,8.15
2023-12-18T03:58:48.704Z,8.12
2023-12-18T03:59:48.685Z,8.18
2023-12-18T04:00:48.703Z,8.18
2023-12-18T04:01:48.699Z,8.27
2023-12-18T04:02:48.575Z,8.19
2023-12-18T04:03:48.609Z,8.20
2023-12-18T04:04:48.596Z,8.18
2023-12-18T04:05:48.520Z,8.23
2023-12-18T04:06:48.470Z,8.26
2023-12-18T04:07:48.489Z,8.24
2023-12-18T04:08:48.349Z,8.18
2023-12-18T04:09:48.427Z,8.15
2023-12-18T04:10:48.279Z,8.23
2023-12-18T04:11:48.273Z,8.23
2023-12-18T04:12:48.256Z,8.16
2023-12-18T04:13:48.249Z,8.19
2023-12-18T04:14:48.155Z,8.16
2023-12-18T04:15:48.146Z,8.20
2023-12-18T04:16:48.068Z,8.19
2023-12-18T04:17:48.225Z,8.19
2023-12-18T04:18:48.146Z,8.13
2023-12-18T04:19:48.119Z,8.23
2023-12-18T04:20:47.929Z,8.20
2023-12-18T04:21:47.952Z,8.19
2023-12-18T04:22:47.863Z,8.24
2023-12-18T04:23:47.847Z,8.20
2023-12-18T04:24:47.969Z,8.24
2023-12-18T04:25:47.759Z,8.26
2023-12-18T04:26:47.727Z,8.27
2023-12-18T04:27:47.735Z,8.20
2023-12-18T04:28:47.642Z,8.19
2023-12-18T04:29:47.667Z,8.15
2023-12-18T04:30:47.744Z,8.15
2023-12-18T04:31:47.586Z,8.19
2023-12-18T04:32:47.536Z,8.16
2023-12-18T04:33:47.550Z,8.10
2023-12-18T04:34:47.471Z,8.08
2023-12-18T04:35:47.394Z,8.12
2023-12-18T04:36:47.551Z,8.12
2023-12-18T04:37:47.539Z,8.13
2023-12-18T04:38:47.291Z,8.10
2023-12-18T04:39:47.293Z,8.09
2023-12-18T04:40:47.223Z,8.05
2023-12-18T04:41:47.189Z,8.13
2023-12-18T04:42:47.648Z,8.12
2023-12-18T04:43:47.124Z,8.01
2023-12-18T04:44:47.084Z,8.00
2023-12-18T04:45:47.125Z,8.00
2023-12-18T04:46:47.029Z,8.00
2023-12-18T04:47:46.982Z,7.95
2023-12-18T04:48:47.113Z,8.06
2023-12-18T04:49:47.001Z,8.06
2023-12-18T04:50:46.918Z,8.03
2023-12-18T04:51:46.893Z,7.95
2023-12-18T04:52:46.967Z,7.98
2023-12-18T04:53:46.799Z,8.01
2023-12-18T04:54:46.875Z,8.00
2023-12-18T04:55:46.699Z,8.05
2023-12-18T04:56:46.672Z,7.98
2023-12-18T04:57:46.676Z,8.08
2023-12-18T04:58:46.586Z,8.00
2023-12-18T04:59:46.580Z,8.06
2023-12-18T05:00:46.648Z,8.00
2023-12-18T05:01:46.517Z,8.05
2023-12-18T05:02:46.471Z,7.94
2023-12-18T05:03:46.485Z,8.00
2023-12-18T05:04:46.460Z,8.05
2023-12-18T05:05:46.440Z,8.00
2023-12-18T05:06:46.451Z,7.98
2023-12-18T05:07:46.277Z,7.94
2023-12-18T05:08:46.231Z,8.08
2023-12-18T05:09:48.944Z,7.97
2023-12-18T05:10:46.185Z,8.00
2023-12-18T05:11:46.140Z,7.98
2023-12-18T05:12:46.423Z,7.97
2023-12-18T05:13:46.072Z,7.97
2023-12-18T05:14:46.062Z,7.97
2023-12-18T05:15:46.036Z,7.97
2023-12-18T05:16:45.999Z,7.98
2023-12-18T05:17:46.003Z,8.01
2023-12-18T05:18:46.044Z,8.05
2023-12-18T05:19:46.033Z,7.98
2023-12-18T05:20:45.818Z,7.98
2023-12-18T05:21:45.941Z,7.97
2023-12-18T05:22:45.738Z,8.01
2023-12-18T05:23:45.745Z,8.03
2023-12-18T05:24:45.768Z,8.03
2023-12-18T05:25:45.642Z,8.00
2023-12-18T05:26:45.622Z,8.03
2023-12-18T05:27:45.619Z,8.09
2023-12-18T05:28:45.541Z,8.06
2023-12-18T05:29:45.507Z,8.05
2023-12-18T05:30:45.565Z,8.10
2023-12-18T05:31:45.535Z,8.03
2023-12-18T05:32:45.728Z,8.10
2023-12-18T05:33:45.475Z,8.09
2023-12-18T05:34:45.383Z,8.09
2023-12-18T05:35:45.336Z,8.08
2023-12-18T05:36:45.372Z,8.09
2023-12-18T05:37:45.234Z,8.08
2023-12-18T05:38:45.197Z,8.06
2023-12-18T05:39:45.187Z,8.08
2023-12-18T05:40:45.110Z,8.15
2023-12-18T05:41:45.082Z,8.03
2023-12-18T05:42:45.458Z,8.09
2023-12-18T05:43:45.013Z,8.10
2023-12-18T05:44:44.986Z,8.12
2023-12-18T05:45:45.044Z,8.12
2023-12-18T05:46:44.905Z,8.13
2023-12-18T05:47:44.924Z,8.12
2023-12-18T05:48:44.991Z,8.12
2023-12-18T05:49:44.889Z,8.13
2023-12-18T05:50:44.762Z,8.23
2023-12-18T05:51:44.789Z,8.18
2023-12-18T05:52:44.767Z,8.20
2023-12-18T05:53:44.710Z,8.36
2023-12-18T05:54:44.741Z,8.31
2023-12-18T05:55:44.613Z,8.34
2023-12-18T05:56:44.579Z,8.27
2023-12-18T05:57:44.662Z,8.28
2023-12-18T05:58:44.485Z,8.33
2023-12-18T05:59:44.448Z,8.28
2023-12-18T06:00:44.575Z,8.37
2023-12-18T06:01:44.469Z,8.30
2023-12-18T06:02:44.619Z,8.31
2023-12-18T06:03:44.357Z,8.33
2023-12-18T06:04:44.363Z,8.31
2023-12-18T06:05:44.324Z,8.34
2023-12-18T06:06:44.327Z,8.33
2023-12-18T06:07:44.165Z,8.34
2023-12-18T06:08:44.116Z,8.34
2023-12-18T06:09:44.130Z,8.36
2023-12-18T06:10:44.076Z,8.30
2023-12-18T06:11:44.010Z,8.36
2023-12-18T06:12:44.289Z,8.28
2023-12-18T06:13:43.948Z,8.36
2023-12-18T06:14:43.896Z,8.37
2023-12-18T06:15:43.885Z,8.41
2023-12-18T06:16:43.837Z,8.37
2023-12-18T06:17:43.867Z,8.26
2023-12-18T06:18:44.100Z,8.27
2023-12-18T06:19:43.884Z,8.36
2023-12-18T06:20:43.705Z,8.28
2023-12-18T06:21:43.693Z,8.33
2023-12-18T06:22:43.835Z,8.34
2023-12-18T06:23:43.602Z,8.36
2023-12-18T06:24:43.657Z,8.34
2023-12-18T06:25:43.511Z,8.30
2023-12-18T06:26:43.469Z,8.27
2023-12-18T06:27:43.521Z,8.28
2023-12-18T06:28:43.416Z,8.33
2023-12-18T06:29:43.372Z,8.34
2023-12-18T06:30:43.476Z,8.36
2023-12-18T06:31:43.485Z,8.26
2023-12-18T06:32:43.649Z,8.36
2023-12-18T06:33:43.402Z,8.34
2023-12-18T06:34:43.363Z,8.33
2023-12-18T06:35:43.160Z,8.27
2023-12-18T06:36:43.239Z,8.37
2023-12-18T06:37:43.098Z,8.33
2023-12-18T06:38:43.057Z,8.33
2023-12-18T06:39:43.048Z,8.38
2023-12-18T06:40:42.991Z,8.30
2023-12-18T06:41:42.958Z,8.34
2023-12-18T06:42:43.360Z,8.34
2023-12-18T06:43:42.887Z,8.27
2023-12-18T06:44:42.852Z,8.33
2023-12-18T06:45:42.837Z,8.30
2023-12-18T06:46:42.784Z,8.33
2023-12-18T06:47:42.759Z,8.33
2023-12-18T06:48:42.813Z,8.34
2023-12-18T06:49:42.726Z,8.31
2023-12-18T06:50:42.636Z,8.33
2023-12-18T06:51:42.645Z,8.33
2023-12-18T06:52:42.849Z,8.31
2023-12-18T06:53:42.554Z,8.28
2023-12-18T06:54:42.605Z,8.30
2023-12-18T06:55:42.463Z,8.36
2023-12-18T06:56:42.423Z,8.33
2023-12-18T06:57:42.404Z,8.26
2023-12-18T06:58:42.355Z,8.33
2023-12-18T06:59:42.321Z,8.34
2023-12-18T07:00:42.375Z,8.37
2023-12-18T07:01:42.342Z,8.31
2023-12-18T07:02:42.454Z,8.37
2023-12-18T07:03:42.258Z,8.30
2023-12-18T07:04:42.149Z,8.33
2023-12-18T07:05:42.132Z,8.31
2023-12-18T07:06:42.150Z,8.38
2023-12-18T07:07:42.036Z,8.37
2023-12-18T07:08:42.094Z,8.28
2023-12-18T07:09:42.059Z,8.34
2023-12-18T07:10:41.936Z,8.34
2023-12-18T07:11:41.990Z,8.33
2023-12-18T07:12:42.138Z,8.31
2023-12-18T07:13:41.834Z,8.34
2023-12-18T07:14:41.799Z,8.33
2023-12-18T07:15:41.799Z,8.34
2023-12-18T07:16:41.738Z,8.26
2023-12-18T07:17:43.380Z,8.28
2023-12-18T07:18:41.778Z,8.30
2023-12-18T07:19:41.652Z,8.37
2023-12-18T07:20:41.575Z,8.33
2023-12-18T07:21:41.584Z,8.28
2023-12-18T07:22:41.715Z,8.34
2023-12-18T07:23:41.535Z,8.31
2023-12-18T07:24:41.492Z,8.33
2023-12-18T07:25:41.403Z,8.36
2023-12-18T07:26:41.379Z,8.33
2023-12-18T07:27:41.374Z,8.33
2023-12-18T07:28:41.314Z,8.30
2023-12-18T07:29:41.333Z,8.30
2023-12-18T07:30:41.521Z,8.30
2023-12-18T07:31:41.369Z,8.34
2023-12-18T07:32:41.530Z,8.28
2023-12-18T07:33:41.220Z,8.36
2023-12-18T07:34:41.255Z,8.26
2023-12-18T07:35:41.115Z,8.27
2023-12-18T07:36:41.043Z,8.30
2023-12-18T07:37:40.986Z,8.41
2023-12-18T07:38:40.955Z,8.31
2023-12-18T07:39:40.938Z,8.33
2023-12-18T07:40:40.945Z,8.42
2023-12-18T07:41:40.855Z,8.33
2023-12-18T07:42:41.022Z,8.28
2023-12-18T07:43:40.782Z,8.34
2023-12-18T07:44:40.752Z,8.36
2023-12-18T07:45:40.743Z,8.33
2023-12-18T07:46:40.732Z,8.33
2023-12-18T07:47:40.757Z,8.34
2023-12-18T07:48:40.703Z,8.34
2023-12-18T07:49:40.670Z,8.37
2023-12-18T07:50:40.544Z,8.33
2023-12-18T07:51:40.563Z,8.45
2023-12-18T07:52:40.828Z,8.38
2023-12-18T07:53:40.432Z,8.41
2023-12-18T07:54:40.450Z,8.52
2023-12-18T07:55:40.350Z,8.45
2023-12-18T07:56:40.323Z,8.46
2023-12-18T07:57:40.329Z,8.51
2023-12-18T07:58:40.320Z,8.55
2023-12-18T07:59:40.213Z,8.60
2023-12-18T08:00:40.291Z,8.69
2023-12-18T08:01:40.158Z,8.61
2023-12-18T08:02:40.362Z,8.66
2023-12-18T08:03:40.225Z,8.66
2023-12-18T08:04:40.109Z,8.70
2023-12-18T08:05:40.052Z,8.66
2023-12-18T08:06:39.988Z,8.71
2023-12-18T08:07:39.934Z,8.71
2023-12-18T08:08:39.906Z,8.71
2023-12-18T08:09:39.914Z,8.73
2023-12-18T08:10:39.924Z,8.70
2023-12-18T08:11:40.033Z,8.89
2023-12-18T08:12:39.955Z,8.91
2023-12-18T08:13:42.033Z,8.87
2023-12-18T08:14:39.758Z,8.95
2023-12-18T08:15:39.703Z,8.95
2023-12-18T08:16:39.689Z,8.99
2023-12-18T08:17:39.636Z,9.03
2023-12-18T08:18:39.748Z,8.95
2023-12-18T08:19:39.642Z,9.00
2023-12-18T08:20:39.664Z,8.97
2023-12-18T08:21:39.500Z,9.00
2023-12-18T08:22:40.004Z,9.04
2023-12-18T08:23:39.376Z,8.94
2023-12-18T08:24:41.959Z,8.97
2023-12-18T08:25:39.326Z,9.04
2023-12-18T08:26:39.305Z,9.02
2023-12-18T08:27:39.329Z,8.99
2023-12-18T08:28:39.289Z,9.04
2023-12-18T08:29:39.178Z,9.02
2023-12-18T08:30:39.243Z,8.92
2023-12-18T08:31:39.616Z,9.03
2023-12-18T08:32:39.140Z,8.99
2023-12-18T08:33:39.176Z,8.99
2023-12-18T08:34:39.149Z,8.91
2023-12-18T08:35:38.960Z,8.85
2023-12-18T08:36:38.959Z,9.03
2023-12-18T08:37:38.902Z,8.92
2023-12-18T08:38:38.866Z,8.95
2023-12-18T08:39:38.928Z,8.95
2023-12-18T08:40:38.804Z,9.00
2023-12-18T08:41:38.792Z,8.99
2023-12-18T08:42:38.806Z,9.00
2023-12-18T08:43:38.735Z,8.95
2023-12-18T08:44:38.750Z,8.94
2023-12-18T08:45:38.701Z,8.95
2023-12-18T08:46:38.649Z,9.00
2023-12-18T08:47:38.629Z,9.00
2023-12-18T08:48:38.611Z,9.04
2023-12-18T08:49:38.577Z,8.92
2023-12-18T08:50:38.457Z,9.00
2023-12-18T08:51:38.489Z,8.97
2023-12-18T08:52:38.411Z,9.11
2023-12-18T08:53:38.349Z,9.16
2023-12-18T08:54:38.342Z,9.06
2023-12-18T08:55:38.297Z,9.16
2023-12-18T08:56:38.254Z,9.13
2023-12-18T08:57:38.301Z,9.18
2023-12-18T08:58:38.179Z,9.16
2023-12-18T08:59:38.147Z,9.03
2023-12-18T09:00:38.198Z,9.02
2023-12-18T09:01:38.127Z,9.10
2023-12-18T09:02:38.049Z,9.21
2023-12-18T09:03:38.139Z,9.14
2023-12-18T09:04:38.025Z,9.04
2023-12-18T09:05:39.077Z,9.11
2023-12-18T09:06:37.982Z,9.06
2023-12-18T09:07:37.865Z,9.08
2023-12-18T09:08:37.833Z,8.97
2023-12-18T09:09:37.914Z,9.03
2023-12-18T09:10:37.774Z,9.03
2023-12-18T09:11:37.741Z,9.00
2023-12-18T09:12:37.765Z,9.02
2023-12-18T09:13:37.708Z,9.03
2023-12-18T09:14:37.627Z,9.02
2023-12-18T09:15:37.676Z,9.02
2023-12-18T09:16:38.794Z,9.04
2023-12-18T09:17:37.576Z,9.03
2023-12-18T09:18:37.626Z,8.99
2023-12-18T09:19:37.612Z,9.00
2023-12-18T09:20:37.442Z,9.16
2023-12-18T09:21:37.452Z,9.23
2023-12-18T09:22:37.358Z,9.23
2023-12-18T09:23:37.313Z,9.21
2023-12-18T09:24:37.327Z,9.16
2023-12-18T09:25:37.311Z,9.14
2023-12-18T09:26:37.220Z,9.16
2023-12-18T09:27:37.256Z,9.18
2023-12-18T09:28:37.335Z,9.11
2023-12-18T09:29:37.110Z,9.03
2023-12-18T09:30:37.127Z,9.13
2023-12-18T09:31:37.265Z,9.06
2023-12-18T09:32:37.223Z,9.03
2023-12-18T09:33:37.161Z,9.00
2023-12-18T09:34:37.159Z,8.99
2023-12-18T09:35:36.909Z,9.00
2023-12-18T09:36:36.914Z,8.95
2023-12-18T09:37:36.833Z,8.95
2023-12-18T09:38:36.806Z,9.02
2023-12-18T09:39:36.789Z,9.08
2023-12-18T09:40:36.786Z,9.02
2023-12-18T09:41:36.712Z,9.02
2023-12-18T09:42:36.681Z,9.13
2023-12-18T09:43:36.653Z,9.11
2023-12-18T09:44:36.590Z,9.16
2023-12-18T09:45:36.581Z,9.21
2023-12-18T09:46:36.591Z,9.25
2023-12-18T09:47:36.528Z,9.22
2023-12-18T09:48:36.607Z,9.32
2023-12-18T09:49:36.578Z,9.40
2023-12-18T09:50:36.392Z,9.43
2023-12-18T09:51:36.437Z,9.56
2023-12-18T09:52:36.371Z,9.76
2023-12-18T09:53:36.284Z,9.73
2023-12-18T09:54:36.295Z,9.62
2023-12-18T09:55:36.228Z,9.54
2023-12-18T09:56:36.177Z,9.54
2023-12-18T09:57:36.194Z,9.56
2023-12-18T09:58:36.165Z,9.54
2023-12-18T09:59:36.127Z,9.56
2023-12-18T10:00:36.140Z,9.55
2023-12-18T10:01:36.073Z,9.50
2023-12-18T10:02:35.995Z,9.55
2023-12-18T10:03:36.103Z,9.56
2023-12-18T10:04:35.964Z,9.56
2023-12-18T10:05:35.889Z,9.55
2023-12-18T10:06:35.884Z,9.51
2023-12-18T10:07:35.813Z,9.61
2023-12-18T10:08:35.791Z,9.58
2023-12-18T10:09:35.787Z,9.56
2023-12-18T10:10:35.754Z,9.41
2023-12-18T10:11:35.740Z,9.55
2023-12-18T10:12:35.735Z,9.55
2023-12-18T10:13:35.609Z,9.56
2023-12-18T10:14:35.583Z,9.51
2023-12-18T10:15:35.663Z,9.44
2023-12-18T10:16:35.601Z,9.43
2023-12-18T10:17:35.552Z,9.40
2023-12-18T10:18:35.618Z,9.26
2023-12-18T10:19:35.513Z,9.31
2023-12-18T10:20:35.370Z,9.34
2023-12-18T10:21:35.347Z,9.34
2023-12-18T10:22:35.345Z,9.37
2023-12-18T10:23:35.270Z,9.39
2023-12-18T10:24:35.260Z,9.31
2023-12-18T10:25:35.201Z,9.36
2023-12-18T10:26:35.165Z,9.40
2023-12-18T10:27:35.344Z,9.43
2023-12-18T10:28:35.153Z,9.46
2023-12-18T10:29:35.070Z,9.47
2023-12-18T10:30:35.127Z,9.44
2023-12-18T10:31:35.118Z,9.48
2023-12-18T10:32:34.968Z,9.37
2023-12-18T10:33:35.048Z,9.28
2023-12-18T10:34:35.143Z,9.36
2023-12-18T10:35:34.855Z,9.46
2023-12-18T10:36:34.872Z,9.56
2023-12-18T10:37:34.858Z,9.62
2023-12-18T10:38:34.760Z,9.74
2023-12-18T10:39:34.763Z,9.82
2023-12-18T10:40:34.733Z,9.86
2023-12-18T10:41:34.644Z,9.84
2023-12-18T10:42:34.749Z,9.95
2023-12-18T10:43:34.590Z,9.95
2023-12-18T10:44:34.546Z,9.86
2023-12-18T10:45:34.542Z,9.89
2023-12-18T10:46:34.534Z,9.74
2023-12-18T10:47:34.491Z,9.69
2023-12-18T10:48:34.474Z,9.55
2023-12-18T10:49:34.405Z,9.58
2023-12-18T10:50:34.358Z,9.58
2023-12-18T10:51:34.417Z,9.44
2023-12-18T10:52:34.545Z,9.46
2023-12-18T10:53:34.244Z,9.40
2023-12-18T10:54:34.254Z,9.39
2023-12-18T10:55:34.168Z,9.43
2023-12-18T10:56:34.139Z,9.48
2023-12-18T10:57:34.144Z,9.55
2023-12-18T10:58:34.619Z,9.51
2023-12-18T10:59:34.048Z,9.47
2023-12-18T11:00:34.031Z,9.54
2023-12-18T11:01:34.011Z,9.56
2023-12-18T11:02:33.959Z,9.54
2023-12-18T11:03:34.664Z,9.59
2023-12-18T11:04:35.168Z,9.62
2023-12-18T11:05:33.885Z,9.56
2023-12-18T11:06:33.841Z,9.55
2023-12-18T11:07:33.904Z,9.56
2023-12-18T11:08:33.722Z,9.51
2023-12-18T11:09:33.771Z,9.46
2023-12-18T11:10:33.727Z,9.47
2023-12-18T11:11:33.625Z,9.56
2023-12-18T11:12:33.634Z,9.51
2023-12-18T11:13:33.561Z,9.55
2023-12-18T11:14:33.564Z,9.66
2023-12-18T11:15:33.561Z,9.64
2023-12-18T11:16:33.444Z,9.64
2023-12-18T11:17:33.457Z,9.62
2023-12-18T11:18:33.453Z,9.61
2023-12-18T11:19:33.489Z,9.65
2023-12-18T11:20:35.197Z,9.64
2023-12-18T11:21:33.345Z,9.55
2023-12-18T11:22:33.270Z,9.62
2023-12-18T11:23:33.266Z,9.54
2023-12-18T11:24:33.227Z,9.55
2023-12-18T11:25:33.167Z,9.44
2023-12-18T11:26:33.176Z,9.44
2023-12-18T11:27:33.216Z,9.44
2023-12-18T11:28:33.056Z,9.46
2023-12-18T11:29:33.016Z,9.47
2023-12-18T11:30:33.105Z,9.40
2023-12-18T11:31:33.029Z,9.40
2023-12-18T11:32:34.922Z,9.41
2023-12-18T11:33:42.552Z,9.40
2023-12-18T11:34:33.108Z,9.43
2023-12-18T11:35:32.860Z,9.40
2023-12-18T11:36:32.835Z,9.41
2023-12-18T11:37:32.747Z,9.44
2023-12-18T11:38:34.347Z,9.43
2023-12-18T11:39:32.791Z,9.41
2023-12-18T11:40:32.665Z,9.40
2023-12-18T11:41:32.630Z,9.29
2023-12-18T11:42:32.594Z,9.32
2023-12-18T11:43:32.539Z,9.28
2023-12-18T11:44:34.306Z,9.23
2023-12-18T11:45:32.571Z,9.23
2023-12-18T11:46:32.440Z,9.16
2023-12-18T11:47:32.409Z,9.18
2023-12-18T11:48:32.464Z,9.13
2023-12-18T11:49:32.529Z,9.03
2023-12-18T11:50:34.822Z,9.18
2023-12-18T11:51:32.366Z,9.14
2023-12-18T11:52:32.222Z,9.22
2023-12-18T11:53:32.209Z,9.22
2023-12-18T11:54:32.172Z,9.22
2023-12-18T11:55:32.134Z,9.28
2023-12-18T11:56:32.095Z,9.31
2023-12-18T11:57:32.129Z,9.34
2023-12-18T11:58:32.083Z,9.43
2023-12-18T11:59:31.999Z,9.39
2023-12-18T12:00:31.985Z,9.43
2023-12-18T12:01:31.983Z,9.58
2023-12-18T12:02:32.389Z,9.56
2023-12-18T12:03:31.962Z,9.55
2023-12-18T12:04:31.946Z,9.55
2023-12-18T12:05:31.797Z,9.48
2023-12-18T12:06:31.788Z,9.43
2023-12-18T12:07:31.753Z,9.41
2023-12-18T12:08:31.680Z,9.39
2023-12-18T12:09:31.770Z,9.41
2023-12-18T12:10:31.608Z,9.47
2023-12-18T12:11:31.579Z,9.50
2023-12-18T12:12:34.142Z,9.58
2023-12-18T12:13:31.513Z,9.50
2023-12-18T12:14:31.464Z,9.55
2023-12-18T12:15:31.562Z,9.65
2023-12-18T12:16:31.405Z,9.73
2023-12-18T12:17:31.428Z,9.74
2023-12-18T12:18:31.470Z,9.77
2023-12-18T12:19:31.359Z,9.86
2023-12-18T12:20:31.282Z,9.91
2023-12-18T12:21:35.881Z,9.80
2023-12-18T12:22:31.213Z,9.95
2023-12-18T12:23:31.159Z,9.92
2023-12-18T12:24:31.244Z,10.01
2023-12-18T12:25:31.104Z,9.98
2023-12-18T12:26:31.055Z,10.07
2023-12-18T12:27:31.196Z,10.04
2023-12-18T12:28:31.001Z,9.99
2023-12-18T12:29:30.972Z,10.04
2023-12-18T12:30:30.988Z,9.89
2023-12-18T12:31:31.046Z,9.87
2023-12-18T12:32:31.034Z,9.87
2023-12-18T12:33:31.031Z,9.97
2023-12-18T12:34:30.902Z,10.01
2023-12-18T12:35:30.772Z,10.02
2023-12-18T12:36:33.128Z,10.09
2023-12-18T12:37:30.737Z,10.09
2023-12-18T12:38:30.810Z,10.01
2023-12-18T12:39:30.763Z,9.98
2023-12-18T12:40:30.588Z,9.91
2023-12-18T12:41:30.544Z,10.01
2023-12-18T12:42:31.497Z,9.94
2023-12-18T12:43:30.482Z,9.89
2023-12-18T12:44:30.463Z,9.95
2023-12-18T12:45:30.506Z,9.95
2023-12-18T12:46:35.622Z,10.01
2023-12-18T12:47:30.375Z,9.94
2023-12-18T12:48:32.843Z,10.01
2023-12-18T12:49:30.382Z,9.94
2023-12-18T12:50:30.257Z,9.95
2023-12-18T12:51:30.317Z,9.99
2023-12-18T12:52:30.186Z,9.99
2023-12-18T12:53:30.157Z,9.99
2023-12-18T12:54:31.234Z,9.82
2023-12-18T12:55:30.080Z,9.84
2023-12-18T12:56:30.990Z,9.94
2023-12-18T12:57:30.106Z,9.99
2023-12-18T12:58:30.039Z,10.04
2023-12-18T12:59:29.942Z,10.04
2023-12-18T13:00:30.478Z,10.04
2023-12-18T13:01:30.006Z,9.98
2023-12-18T13:02:29.878Z,9.94
2023-12-18T13:03:29.936Z,9.95
2023-12-18T13:04:29.907Z,10.01
2023-12-18T13:05:29.767Z,9.94
2023-12-18T13:06:29.726Z,9.92
2023-12-18T13:07:29.683Z,9.94
2023-12-18T13:08:29.652Z,9.83
2023-12-18T13:09:29.704Z,9.80
2023-12-18T13:10:29.584Z,9.76
2023-12-18T13:11:29.532Z,9.79
2023-12-18T13:12:29.544Z,9.74
2023-12-18T13:13:29.483Z,9.84
2023-12-18T13:14:29.443Z,9.80
2023-12-18T13:15:29.635Z,9.76
2023-12-18T13:16:29.371Z,9.73
2023-12-18T13:17:29.411Z,9.73